Time;durP1;ratioP1;P1;durP2;ratioP2;P2;SDS_P1;SDS_P2;PMS_P1;PMS_P2;Temp;Humidity;BMP_temperature;BMP_pressure;BME280_temperature;BME280_humidity;BME280_pressure;Samples;Min_cycle;Max_cycle;Signal;HPM_P1;HPM_P2
2023/06/29 00:01:08;;;;;;;3.65;2.20;;;;;;;13.72;100.00;98718.69;4470493;32;20097;-65
2023/06/29 00:03:36;;;;;;;6.62;3.90;;;;;;;13.77;100.00;98711.13;4470529;32;20107;-65
2023/06/29 00:06:03;;;;;;;3.67;2.10;;;;;;;13.83;100.00;98717.59;4470449;32;20805;-66
2023/06/29 00:08:35;;;;;;;4.20;2.40;;;;;;;13.90;100.00;98713.34;4470442;32;20119;-65
2023/06/29 00:11:04;;;;;;;2.87;1.80;;;;;;;13.90;100.00;98718.59;4483390;32;20151;-65
2023/06/29 00:13:32;;;;;;;3.33;2.33;;;;;;;13.91;100.00;98724.69;4485893;31;20096;-65
2023/06/29 00:16:00;;;;;;;4.12;2.37;;;;;;;13.93;100.00;98723.56;4485926;31;20127;-65
2023/06/29 00:18:28;;;;;;;4.43;2.40;;;;;;;14.00;100.00;98723.72;4486049;31;20096;-65
2023/06/29 00:20:57;;;;;;;3.92;2.50;;;;;;;14.04;100.00;98722.44;4485857;31;20114;-65
2023/06/29 00:23:27;;;;;;;6.22;2.50;;;;;;;14.02;100.00;98725.22;4486009;31;20442;-65
2023/06/29 00:25:56;;;;;;;2.85;2.35;;;;;;;13.99;100.00;98720.28;4486247;31;20483;-65
2023/06/29 00:28:24;;;;;;;4.07;2.58;;;;;;;14.02;100.00;98716.50;4485898;31;20103;-66
2023/06/29 00:30:51;;;;;;;4.20;2.72;;;;;;;14.03;100.00;98718.13;4485876;32;20130;-65
2023/06/29 00:33:19;;;;;;;4.62;2.50;;;;;;;14.05;100.00;98715.34;4486088;31;20088;-65
2023/06/29 00:35:51;;;;;;;7.85;2.78;;;;;;;14.08;100.00;98717.66;4485776;32;20422;-65
2023/06/29 00:38:22;;;;;;;4.03;2.45;;;;;;;14.04;100.00;98718.97;4485937;32;20130;-65
2023/06/29 00:40:49;;;;;;;4.47;2.67;;;;;;;14.11;100.00;98722.59;4485825;31;20180;-65
2023/06/29 00:43:18;;;;;;;4.62;2.42;;;;;;;14.10;100.00;98720.97;4485768;31;20530;-65
2023/06/29 00:45:46;;;;;;;6.40;2.58;;;;;;;14.11;100.00;98709.44;4486014;31;20116;-65
2023/06/29 00:48:13;;;;;;;3.37;2.20;;;;;;;14.12;100.00;98725.06;4485633;32;20165;-65
2023/06/29 00:50:41;;;;;;;7.05;2.33;;;;;;;14.15;100.00;98721.31;4484674;32;20447;-65
2023/06/29 00:53:09;;;;;;;3.65;2.55;;;;;;;14.19;100.00;98712.09;4485683;32;20111;-65
2023/06/29 00:55:37;;;;;;;5.35;2.05;;;;;;;14.14;100.00;98722.28;4484738;32;20236;-65
2023/06/29 00:58:05;;;;;;;4.03;2.53;;;;;;;14.11;100.00;98714.69;4485779;31;20239;-65
2023/06/29 01:00:33;;;;;;;3.47;2.12;;;;;;;14.09;100.00;98714.84;4485546;32;20616;-65
2023/06/29 01:03:04;;;;;;;3.12;2.12;;;;;;;14.12;100.00;98717.16;4485629;31;20520;-65
2023/06/29 01:05:33;;;;;;;3.90;2.60;;;;;;;14.09;100.00;98714.84;4485690;31;20728;-65
2023/06/29 01:08:08;;;;;;;2.97;2.17;;;;;;;14.15;100.00;98718.66;4485680;31;20096;-65
2023/06/29 01:10:38;;;;;;;3.42;2.58;;;;;;;14.05;100.00;98710.06;4485502;32;20118;-65
2023/06/29 01:13:07;;;;;;;3.75;2.58;;;;;;;13.98;100.00;98713.34;4480520;32;20199;-65
2023/06/29 01:15:35;;;;;;;2.65;2.00;;;;;;;13.99;100.00;98707.09;4469567;32;20093;-65
2023/06/29 01:18:03;;;;;;;4.47;1.83;;;;;;;13.98;100.00;98708.09;4470076;32;20096;-65
2023/06/29 01:20:32;;;;;;;6.07;2.00;;;;;;;13.99;100.00;98709.75;4468526;32;20161;-65
2023/06/29 01:23:07;;;;;;;4.62;2.10;;;;;;;13.94;100.00;98706.75;4470020;32;20099;-65
2023/06/29 01:25:36;;;;;;;4.00;2.30;;;;;;;13.91;100.00;98707.06;4469906;32;20089;-65
2023/06/29 01:28:07;;;;;;;3.33;2.22;;;;;;;13.95;100.00;98700.50;4468534;32;20497;-65
2023/06/29 01:30:48;;;;;;;4.62;2.42;;;;;;;13.89;100.00;98698.50;4469821;32;20093;-65
2023/06/29 01:33:20;;;;;;;4.80;2.17;;;;;;;13.89;100.00;98695.88;4469813;32;20077;-65
2023/06/29 01:35:52;;;;;;;5.07;2.25;;;;;;;13.84;100.00;98709.53;4468317;32;20096;-65
2023/06/29 01:38:42;;;;;;;3.45;2.67;;;;;;;13.84;100.00;98703.44;4468522;32;20135;-65
2023/06/29 01:41:12;;;;;;;3.20;2.30;;;;;;;13.82;100.00;98710.66;4468305;32;20149;-65
2023/06/29 01:43:40;;;;;;;6.40;2.90;;;;;;;13.79;100.00;98708.34;4468856;32;20122;-65
2023/06/29 01:46:08;;;;;;;5.32;2.80;;;;;;;13.73;100.00;98706.34;4468403;32;20158;-65
2023/06/29 01:48:37;;;;;;;5.18;2.85;;;;;;;13.70;100.00;98701.41;4469685;32;20119;-65
2023/06/29 01:51:07;;;;;;;3.35;2.40;;;;;;;13.68;100.00;98692.84;4468346;32;20127;-65
2023/06/29 01:53:38;;;;;;;4.07;2.35;;;;;;;13.60;100.00;98694.47;4469564;32;20096;-65
2023/06/29 01:56:06;;;;;;;7.87;3.28;;;;;;;13.60;100.00;98693.66;4469559;32;20093;-65
2023/06/29 01:58:33;;;;;;;3.62;2.53;;;;;;;13.52;100.00;98693.59;4469898;32;20101;-65
2023/06/29 02:01:02;;;;;;;7.87;2.92;;;;;;;13.50;100.00;98696.38;4469542;32;20112;-65
2023/06/29 02:03:30;;;;;;;7.93;3.30;;;;;;;13.54;100.00;98692.47;4469723;32;20127;-65
2023/06/29 02:05:58;;;;;;;5.80;3.10;;;;;;;13.53;100.00;98690.81;4469437;32;20092;-65
2023/06/29 02:08:25;;;;;;;5.72;3.08;;;;;;;13.53;100.00;98688.19;4469664;32;20638;-65
2023/06/29 02:10:53;;;;;;;5.00;3.20;;;;;;;13.48;100.00;98688.66;4481491;32;20209;-65
2023/06/29 02:13:21;;;;;;;5.75;4.37;;;;;;;13.50;100.00;98685.88;4485272;31;20114;-65
2023/06/29 02:15:48;;;;;;;7.20;3.75;;;;;;;13.40;100.00;98690.41;4484008;32;20478;-65
2023/06/29 02:18:16;;;;;;;6.10;3.92;;;;;;;13.35;100.00;98687.44;4485174;31;20081;-65
2023/06/29 02:20:44;;;;;;;5.40;3.33;;;;;;;13.43;100.00;98690.09;4484996;31;20149;-65
2023/06/29 02:23:11;;;;;;;15.52;5.20;;;;;;;13.38;100.00;98689.75;4485067;32;20476;-65
2023/06/29 02:25:40;;;;;;;5.03;3.58;;;;;;;13.41;100.00;98681.53;4484846;32;20165;-65
2023/06/29 02:28:07;;;;;;;7.07;3.08;;;;;;;13.49;100.00;98686.88;4485012;31;20492;-65
2023/06/29 02:30:34;;;;;;;4.37;3.08;;;;;;;13.56;100.00;98679.16;4484999;32;20088;-65
2023/06/29 02:33:02;;;;;;;4.70;3.03;;;;;;;13.59;100.00;98684.09;4485302;31;20096;-65
2023/06/29 02:35:29;;;;;;;6.75;2.80;;;;;;;13.58;100.00;98682.44;4484971;31;20099;-65
2023/06/29 02:37:56;;;;;;;4.95;3.20;;;;;;;13.59;100.00;98682.28;4484805;32;20557;-65
2023/06/29 02:40:24;;;;;;;4.25;2.95;;;;;;;13.64;100.00;98687.06;4485177;32;20803;-65
2023/06/29 02:42:51;;;;;;;4.53;2.75;;;;;;;13.70;100.00;98685.62;4483490;32;20096;-65
2023/06/29 02:45:19;;;;;;;5.00;2.87;;;;;;;13.83;100.00;98691.25;4483570;32;20468;-65
2023/06/29 02:47:46;;;;;;;3.53;2.45;;;;;;;13.91;100.00;98690.47;4485132;31;20143;-65
2023/06/29 02:50:13;;;;;;;4.25;2.62;;;;;;;14.02;100.00;98690.16;4484749;31;20446;-65
2023/06/29 02:52:41;;;;;;;5.50;2.70;;;;;;;14.05;100.00;98697.75;4484832;32;20100;-65
2023/06/29 02:55:08;;;;;;;7.65;2.72;;;;;;;14.13;100.00;98703.03;4484879;31;20096;-65
2023/06/29 02:57:37;;;;;;;4.45;2.45;;;;;;;14.16;100.00;98696.63;4484862;31;20089;-65
2023/06/29 03:00:05;;;;;;;6.75;2.83;;;;;;;14.20;100.00;98704.03;4484567;32;20470;-65
2023/06/29 03:02:35;;;;;;;3.92;2.72;;;;;;;14.20;100.00;98708.47;4484381;31;20109;-65
2023/06/29 03:05:02;;;;;;;9.32;3.42;;;;;;;14.23;100.00;98704.69;4484633;31;20174;-65
2023/06/29 03:07:29;;;;;;;9.02;3.78;;;;;;;14.26;100.00;98713.09;4484416;31;20844;-65
2023/06/29 03:09:57;;;;;;;5.00;2.60;;;;;;;14.28;100.00;98715.59;4484464;31;20092;-65
2023/06/29 03:12:24;;;;;;;4.47;2.25;;;;;;;14.31;100.00;98707.34;4484258;31;20096;-65
2023/06/29 03:14:51;;;;;;;3.15;2.47;;;;;;;14.33;100.00;98708.00;4484568;31;20135;-65
2023/06/29 03:17:18;;;;;;;4.70;2.53;;;;;;;14.38;100.00;98711.81;4484482;31;20124;-65
2023/06/29 03:19:45;;;;;;;5.20;2.50;;;;;;;14.32;100.00;98711.59;4484663;31;20088;-65
2023/06/29 03:22:12;;;;;;;4.72;2.28;;;;;;;14.45;100.00;98708.50;4484148;31;20132;-65
2023/06/29 03:24:40;;;;;;;3.45;2.35;;;;;;;14.63;100.00;98703.94;4484285;31;20092;-65
2023/06/29 03:27:07;;;;;;;3.90;2.35;;;;;;;14.81;100.00;98709.03;4485206;32;20114;-65
2023/06/29 03:29:34;;;;;;;3.67;2.15;;;;;;;14.98;100.00;98701.94;4486322;31;20100;-65
2023/06/29 03:32:01;;;;;;;5.95;2.50;;;;;;;15.13;100.00;98711.81;4486378;32;20148;-65
2023/06/29 03:34:28;;;;;;;4.90;2.08;;;;;;;15.26;100.00;98712.94;4486258;31;20431;-65
2023/06/29 03:36:56;;;;;;;4.40;2.33;;;;;;;15.43;100.00;98715.53;4486158;32;20115;-65
2023/06/29 03:39:23;;;;;;;4.10;2.10;;;;;;;15.51;100.00;98719.97;4486167;32;20092;-65
2023/06/29 03:41:50;;;;;;;5.90;2.33;;;;;;;15.53;100.00;98723.25;4486317;32;20189;-65
2023/06/29 03:44:17;;;;;;;4.60;2.47;;;;;;;15.56;100.00;98725.53;4486598;32;20122;-65
2023/06/29 03:46:44;;;;;;;4.70;2.30;;;;;;;15.62;100.00;98719.59;4486067;31;20612;-65
2023/06/29 03:49:11;;;;;;;3.28;2.08;;;;;;;15.58;100.00;98708.56;4485988;32;20089;-65
2023/06/29 03:51:38;;;;;;;3.65;2.00;;;;;;;15.51;100.00;98717.31;4486166;32;20096;-65
2023/06/29 03:54:06;;;;;;;3.72;2.60;;;;;;;15.50;100.00;98711.19;4486098;32;20191;-65
2023/06/29 03:56:33;;;;;;;3.97;2.28;;;;;;;15.54;100.00;98709.88;4486146;31;20088;-65
2023/06/29 03:59:00;;;;;;;4.05;2.08;;;;;;;15.49;100.00;98703.44;4487897;31;20231;-65
2023/06/29 04:01:27;;;;;;;2.83;2.05;;;;;;;15.57;100.00;98703.44;4489161;31;20149;-64
2023/06/29 04:03:55;;;;;;;7.78;2.47;;;;;;;15.49;100.00;98703.44;4486843;31;20434;-65
2023/06/29 04:06:22;;;;;;;4.95;2.00;;;;;;;15.45;100.00;98718.81;4488471;31;20096;-65
2023/06/29 04:08:49;;;;;;;4.43;2.10;;;;;;;15.49;100.00;98714.84;4500840;31;20101;-65
2023/06/29 04:11:16;;;;;;;2.47;2.03;;;;;;;15.50;100.00;98711.19;4487263;31;20175;-65
2023/06/29 04:13:43;;;;;;;4.70;1.98;;;;;;;15.43;100.00;98716.34;4486060;31;20088;-65
2023/06/29 04:16:10;;;;;;;3.67;2.33;;;;;;;15.43;100.00;98716.34;4485985;31;20468;-65
2023/06/29 04:18:40;;;;;;;5.50;2.75;;;;;;;15.44;100.00;98715.38;4487528;31;20125;-65
2023/06/29 04:21:07;;;;;;;3.15;1.95;;;;;;;15.47;100.00;98710.72;4487077;31;20118;-65
2023/06/29 04:23:35;;;;;;;4.65;2.55;;;;;;;15.43;100.00;98715.53;4497829;31;20130;-65
2023/06/29 04:26:04;;;;;;;11.88;3.65;;;;;;;15.41;100.00;98707.78;4500125;31;20088;-65
2023/06/29 04:28:35;;;;;;;4.37;1.92;;;;;;;15.41;100.00;98707.78;4501436;31;20096;-65
2023/06/29 04:31:02;;;;;;;4.22;2.22;;;;;;;15.39;100.00;98704.47;4499740;31;20529;-65
2023/06/29 04:33:30;;;;;;;4.55;1.65;;;;;;;15.46;99.93;98703.78;4501151;31;20540;-65
2023/06/29 04:35:58;;;;;;;5.72;2.10;;;;;;;15.52;99.18;98703.09;4496993;31;20123;-65
2023/06/29 04:38:27;;;;;;;3.90;1.67;;;;;;;15.76;97.05;98710.97;4501302;31;20096;-65
2023/06/29 04:41:04;;;;;;;3.10;1.90;;;;;;;15.82;95.94;98706.84;4487396;31;20486;-65
2023/06/29 04:43:32;;;;;;;2.87;1.90;;;;;;;15.90;94.92;98700.69;4484912;31;20088;-65
2023/06/29 04:46:00;;;;;;;7.72;2.00;;;;;;;16.01;94.00;98702.12;4486624;31;20721;-65
2023/06/29 04:48:37;;;;;;;6.05;2.08;;;;;;;16.07;93.62;98707.53;4485288;31;20664;-65
2023/06/29 04:51:06;;;;;;;2.53;1.75;;;;;;;16.13;93.60;98700.72;4485690;31;20450;-65
2023/06/29 04:53:34;;;;;;;3.08;2.15;;;;;;;16.27;93.00;98702.59;4484659;31;20123;-65
2023/06/29 04:56:02;;;;;;;4.82;1.95;;;;;;;16.32;92.41;98702.91;4499136;31;20108;-65
2023/06/29 04:58:30;;;;;;;5.00;2.20;;;;;;;16.32;91.78;98704.72;4493660;31;20115;-65
2023/06/29 05:00:57;;;;;;;3.05;2.12;;;;;;;16.48;91.97;98701.16;4484723;31;20482;-65
2023/06/29 05:03:26;;;;;;;3.53;2.40;;;;;;;16.44;90.05;98708.62;4484890;31;21891;-65
2023/06/29 05:05:54;;;;;;;4.45;2.17;;;;;;;16.46;90.53;98706.59;4481560;31;20130;-66
2023/06/29 05:08:21;;;;;;;3.65;2.10;;;;;;;16.62;90.75;98707.47;4483018;31;20165;-65
2023/06/29 05:10:50;;;;;;;4.12;2.08;;;;;;;16.67;91.04;98708.59;4484123;31;20096;-65
2023/06/29 05:13:18;;;;;;;1.87;1.75;;;;;;;16.58;91.51;98708.81;4482996;31;20108;-65
2023/06/29 05:15:47;;;;;;;2.87;2.22;;;;;;;16.75;92.30;98704.25;4477751;31;20115;-65
2023/06/29 05:18:16;;;;;;;2.83;2.15;;;;;;;16.83;90.29;98707.63;4480415;31;20130;-65
2023/06/29 05:20:43;;;;;;;3.35;2.20;;;;;;;16.89;89.35;98705.31;4481751;31;20100;-65
2023/06/29 05:23:11;;;;;;;7.37;2.15;;;;;;;16.89;89.66;98700.03;4486613;31;20140;-65
2023/06/29 05:25:40;;;;;;;4.05;2.70;;;;;;;16.95;89.62;98708.06;4485531;31;20088;-65
2023/06/29 05:28:08;;;;;;;4.85;2.75;;;;;;;17.01;89.76;98709.16;4484290;31;20447;-65
2023/06/29 05:30:36;;;;;;;5.70;2.42;;;;;;;17.10;89.67;98700.13;4486890;31;20479;-66
2023/06/29 05:33:04;;;;;;;2.75;2.20;;;;;;;17.32;89.26;98698.44;4482726;31;20161;-65
2023/06/29 05:35:34;;;;;;;3.62;2.30;;;;;;;17.19;89.54;98711.47;4487300;31;20096;-65
2023/06/29 05:38:01;;;;;;;5.03;2.58;;;;;;;17.31;89.22;98707.38;4484121;31;20108;-65
2023/06/29 05:40:29;;;;;;;7.55;2.60;;;;;;;17.25;90.33;98709.94;4482469;31;20405;-65
2023/06/29 05:42:56;;;;;;;6.40;3.10;;;;;;;17.27;90.52;98705.28;4485969;31;20160;-65
2023/06/29 05:45:24;;;;;;;5.78;2.55;;;;;;;17.38;90.61;98716.25;4488765;31;20137;-65
2023/06/29 05:47:51;;;;;;;6.00;2.35;;;;;;;17.44;90.35;98713.84;4485844;31;20466;-65
2023/06/29 05:50:20;;;;;;;3.67;2.62;;;;;;;17.53;91.20;98712.75;4478617;31;20096;-65
2023/06/29 05:52:48;;;;;;;7.30;2.80;;;;;;;17.64;91.56;98719.41;4480839;31;20104;-66
2023/06/29 05:55:19;;;;;;;5.70;2.67;;;;;;;17.75;90.61;98711.00;4483185;31;20108;-66
2023/06/29 05:57:47;;;;;;;9.00;2.67;;;;;;;17.86;90.29;98718.47;4484716;31;20172;-66
2023/06/29 06:00:15;;;;;;;7.72;2.50;;;;;;;17.99;88.89;98722.34;4483941;31;20159;-66
2023/06/29 06:02:44;;;;;;;3.78;2.40;;;;;;;18.00;89.28;98713.37;4484565;31;20160;-66
2023/06/29 06:05:11;;;;;;;3.85;2.17;;;;;;;18.07;88.18;98720.37;4483174;31;20115;-66
2023/06/29 06:07:39;;;;;;;2.65;2.20;;;;;;;18.15;89.61;98711.50;4474953;31;20486;-65
2023/06/29 06:10:07;;;;;;;5.18;2.83;;;;;;;18.21;87.24;98713.41;4479014;31;20108;-66
2023/06/29 06:12:34;;;;;;;5.43;2.10;;;;;;;18.42;85.38;98709.94;4477806;31;20178;-66
2023/06/29 06:15:03;;;;;;;4.90;2.70;;;;;;;18.71;85.38;98710.00;4481494;32;20112;-66
2023/06/29 06:17:30;;;;;;;3.53;1.73;;;;;;;18.71;83.19;98716.12;4481951;32;20104;-66
2023/06/29 06:19:57;;;;;;;3.40;1.90;;;;;;;18.77;82.62;98711.88;4481839;31;20119;-66
2023/06/29 06:22:25;;;;;;;9.85;2.42;;;;;;;18.86;82.04;98716.06;4478905;31;20157;-67
2023/06/29 06:24:52;;;;;;;3.95;2.08;;;;;;;18.94;81.74;98704.47;4480781;31;20096;-66
2023/06/29 06:27:20;;;;;;;4.55;2.30;;;;;;;19.18;79.35;98705.06;4481869;31;20095;-66
2023/06/29 06:29:48;;;;;;;3.80;2.08;;;;;;;19.18;79.78;98713.84;4482492;31;20100;-66
2023/06/29 06:32:15;;;;;;;4.50;2.75;;;;;;;19.21;77.95;98708.16;4481958;32;20514;-66
2023/06/29 06:34:43;;;;;;;2.55;1.92;;;;;;;19.27;79.22;98706.56;4481153;31;20536;-67
2023/06/29 06:37:11;;;;;;;2.85;1.75;;;;;;;19.26;78.77;98715.56;4480222;31;20108;-66
2023/06/29 06:39:39;;;;;;;3.53;1.92;;;;;;;19.40;80.04;98706.63;4480577;31;20122;-67
2023/06/29 06:42:06;;;;;;;6.50;2.22;;;;;;;19.58;78.70;98711.44;4479461;31;20092;-66
2023/06/29 06:44:36;;;;;;;6.25;1.90;;;;;;;19.58;78.72;98710.63;4477644;31;20465;-66
2023/06/29 06:47:04;;;;;;;4.82;2.37;;;;;;;19.84;78.78;98708.09;4472829;31;20173;-67
2023/06/29 06:49:31;;;;;;;2.92;2.08;;;;;;;19.80;77.41;98719.34;4481272;31;20096;-66
2023/06/29 06:52:02;;;;;;;6.12;2.45;;;;;;;19.88;77.81;98705.87;4483254;31;20108;-67
2023/06/29 06:54:29;;;;;;;4.07;2.05;;;;;;;20.02;78.39;98706.75;4478664;31;20143;-66
2023/06/29 06:56:56;;;;;;;2.70;1.83;;;;;;;20.06;77.61;98701.84;4478525;31;20104;-66
2023/06/29 06:59:24;;;;;;;9.45;2.58;;;;;;;20.08;76.17;98703.28;4481979;31;20134;-66
2023/06/29 07:01:52;;;;;;;5.28;2.17;;;;;;;20.14;76.53;98714.97;4480693;31;20135;-66
2023/06/29 07:04:19;;;;;;;3.85;2.30;;;;;;;20.13;75.91;98726.63;4481345;31;20099;-66
2023/06/29 07:06:47;;;;;;;3.22;2.10;;;;;;;20.08;76.22;98718.44;4477966;31;20107;-67
2023/06/29 07:09:15;;;;;;;5.70;1.77;;;;;;;20.29;76.45;98715.63;4476534;31;20488;-67
2023/06/29 07:11:43;;;;;;;6.00;2.30;;;;;;;20.24;74.31;98719.87;4479054;31;20115;-66
2023/06/29 07:14:11;;;;;;;2.50;1.92;;;;;;;20.30;74.26;98714.59;4476699;31;20164;-66
2023/06/29 07:16:38;;;;;;;3.90;2.17;;;;;;;20.25;74.05;98710.91;4475154;31;20119;-66
2023/06/29 07:19:12;;;;;;;3.78;2.15;;;;;;;20.29;74.78;98702.31;4481000;31;20510;-66
2023/06/29 07:21:45;;;;;;;2.47;1.70;;;;;;;20.30;74.09;98708.44;4478516;31;20143;-66
2023/06/29 07:24:32;;;;;;;5.07;2.42;;;;;;;20.47;74.01;98708.88;4479986;31;20578;-67
2023/06/29 07:27:00;;;;;;;3.12;2.80;;;;;;;20.57;73.77;98714.63;4480478;31;20122;-67
2023/06/29 07:29:30;;;;;;;4.12;1.95;;;;;;;20.64;73.51;98714.66;4482424;31;20123;-66
2023/06/29 07:31:57;;;;;;;3.90;2.47;;;;;;;20.71;72.01;98710.16;4479918;31;20614;-67
2023/06/29 07:34:24;;;;;;;3.67;2.45;;;;;;;20.78;73.18;98715.50;4481164;31;20835;-66
2023/06/29 07:36:51;;;;;;;3.95;2.10;;;;;;;20.78;72.21;98712.84;4480686;31;20096;-67
2023/06/29 07:39:18;;;;;;;4.28;2.08;;;;;;;20.79;72.24;98720.63;4476708;31;20145;-66
2023/06/29 07:41:46;;;;;;;5.75;2.28;;;;;;;21.04;72.52;98715.47;4478039;31;20202;-66
2023/06/29 07:44:14;;;;;;;3.90;1.80;;;;;;;21.09;71.20;98718.34;4477488;31;20085;-66
2023/06/29 07:46:41;;;;;;;2.95;1.98;;;;;;;21.00;70.64;98724.09;4479671;31;20447;-67
2023/06/29 07:49:09;;;;;;;4.95;2.10;;;;;;;21.25;70.80;98719.75;4478485;31;20737;-67
2023/06/29 07:51:36;;;;;;;2.47;1.80;;;;;;;21.20;69.45;98727.56;4480870;31;20199;-67
2023/06/29 07:54:06;;;;;;;4.32;1.95;;;;;;;21.32;69.77;98711.75;4477560;31;20156;-66
2023/06/29 07:56:33;;;;;;;7.00;2.37;;;;;;;21.54;70.55;98724.84;4474239;31;20123;-67
2023/06/29 07:59:04;;;;;;;3.85;1.75;;;;;;;21.41;71.40;98726.50;4478648;31;20119;-67
2023/06/29 08:01:36;;;;;;;3.97;2.00;;;;;;;21.48;70.51;98715.81;4479478;31;20791;-67
2023/06/29 08:04:08;;;;;;;4.60;2.20;;;;;;;21.82;70.00;98731.72;4479241;31;20545;-67
2023/06/29 08:06:41;;;;;;;6.05;2.17;;;;;;;21.82;68.71;98726.41;4477860;31;20143;-67
2023/06/29 08:09:19;;;;;;;5.12;2.10;;;;;;;21.86;69.58;98722.28;4479977;31;20186;-67
2023/06/29 08:11:46;;;;;;;5.18;2.00;;;;;;;21.84;67.96;98724.34;4479942;31;20100;-67
2023/06/29 08:14:14;;;;;;;5.10;1.92;;;;;;;22.06;66.98;98728.37;4480937;31;20873;-67
2023/06/29 08:16:41;;;;;;;3.53;1.90;;;;;;;21.82;67.88;98737.06;4480613;31;20092;-67
2023/06/29 08:19:08;;;;;;;3.35;1.80;;;;;;;22.04;69.03;98730.41;4482160;31;20088;-67
2023/06/29 08:21:35;;;;;;;6.57;2.03;;;;;;;22.02;68.93;98731.66;4478722;31;20108;-67
2023/06/29 08:24:03;;;;;;;3.97;2.47;;;;;;;21.93;68.81;98737.22;4478407;31;20093;-66
2023/06/29 08:26:30;;;;;;;3.97;2.15;;;;;;;21.90;69.09;98736.84;4479724;31;20527;-66
2023/06/29 08:28:57;;;;;;;4.45;1.95;;;;;;;22.11;68.30;98736.53;4481029;31;20103;-66
2023/06/29 08:31:24;;;;;;;5.03;2.30;;;;;;;21.90;68.02;98735.00;4480737;31;20159;-66
2023/06/29 08:33:51;;;;;;;3.00;1.83;;;;;;;22.12;67.82;98732.84;4480275;31;20532;-67
2023/06/29 08:36:19;;;;;;;4.03;1.92;;;;;;;22.43;67.11;98749.94;4477789;31;20120;-67
2023/06/29 08:38:49;;;;;;;3.75;2.12;;;;;;;22.45;69.39;98745.22;4477233;31;20092;-66
2023/06/29 08:41:16;;;;;;;4.90;2.10;;;;;;;22.13;67.01;98750.50;4480279;31;20111;-67
2023/06/29 08:43:44;;;;;;;2.35;2.00;;;;;;;22.16;68.30;98743.91;4476402;31;20451;-67
2023/06/29 08:46:12;;;;;;;2.92;2.35;;;;;;;22.45;67.64;98739.88;4480357;31;20142;-67
2023/06/29 08:48:41;;;;;;;2.47;1.83;;;;;;;22.37;68.14;98740.12;4482398;31;20088;-67
2023/06/29 08:51:10;;;;;;;2.72;1.87;;;;;;;22.64;67.26;98740.78;4481086;31;20153;-67
2023/06/29 08:53:41;;;;;;;2.37;2.10;;;;;;;22.74;66.64;98742.13;4472152;31;20478;-67
2023/06/29 08:56:09;;;;;;;2.47;1.67;;;;;;;22.75;65.77;98733.09;4487191;31;20119;-67
2023/06/29 08:58:38;;;;;;;2.90;1.80;;;;;;;22.89;67.00;98731.13;4477476;31;20461;-67
2023/06/29 09:01:06;;;;;;;3.53;2.10;;;;;;;22.85;65.50;98736.13;4476841;31;20176;-67
2023/06/29 09:03:38;;;;;;;3.22;1.90;;;;;;;22.72;66.67;98737.00;4480211;31;20096;-66
2023/06/29 09:06:06;;;;;;;3.72;1.83;;;;;;;22.79;66.40;98743.13;4480234;31;20100;-66
2023/06/29 09:08:37;;;;;;;3.15;1.85;;;;;;;22.72;65.80;98742.34;4477921;31;20096;-67
2023/06/29 09:11:05;;;;;;;2.33;1.62;;;;;;;22.74;65.87;98739.47;4480009;31;20131;-67
2023/06/29 09:13:34;;;;;;;2.62;1.60;;;;;;;23.04;65.71;98743.16;4482571;31;20286;-67
2023/06/29 09:16:02;;;;;;;3.55;2.08;;;;;;;23.16;64.77;98745.94;4467824;31;20116;-67
2023/06/29 09:18:32;;;;;;;5.30;2.10;;;;;;;23.11;63.35;98740.44;4482965;31;20093;-66
2023/06/29 09:21:00;;;;;;;3.12;2.40;;;;;;;23.17;66.48;98742.22;4483302;31;20171;-67
2023/06/29 09:23:28;;;;;;;2.10;1.90;;;;;;;23.20;64.33;98743.66;4476618;31;20096;-67
2023/06/29 09:25:56;;;;;;;4.40;1.90;;;;;;;23.08;65.05;98735.50;4482670;31;20092;-66
2023/06/29 09:28:25;;;;;;;6.72;2.00;;;;;;;23.14;63.79;98729.31;4480484;31;20084;-67
2023/06/29 09:30:53;;;;;;;2.65;2.00;;;;;;;23.10;63.22;98733.44;4481658;31;20487;-67
2023/06/29 09:33:24;;;;;;;2.92;2.08;;;;;;;23.19;64.00;98724.12;4484451;31;20149;-67
2023/06/29 09:35:53;;;;;;;5.15;2.42;;;;;;;23.42;65.27;98725.31;4480151;31;20088;-67
2023/06/29 09:38:21;;;;;;;5.07;2.42;;;;;;;23.53;63.05;98732.62;4479631;32;20112;-67
2023/06/29 09:41:02;;;;;;;6.65;2.47;;;;;;;23.29;63.73;98736.97;4478607;32;20131;-67
2023/06/29 09:43:30;;;;;;;3.25;2.22;;;;;;;23.52;63.26;98725.63;4483008;31;20175;-67
2023/06/29 09:46:06;;;;;;;4.57;2.03;;;;;;;23.79;62.07;98730.69;4483342;31;20096;-67
2023/06/29 09:48:45;;;;;;;3.55;2.10;;;;;;;23.92;62.60;98727.87;4478274;31;20535;-67
2023/06/29 09:51:20;;;;;;;3.08;2.10;;;;;;;24.19;61.96;98727.53;4469143;32;20426;-67
2023/06/29 09:53:48;;;;;;;2.60;2.17;;;;;;;23.46;60.89;98729.19;4481539;31;20589;-67
2023/06/29 09:56:18;;;;;;;4.62;2.30;;;;;;;23.46;61.04;98723.84;4485013;31;20147;-67
2023/06/29 09:58:46;;;;;;;3.78;1.73;;;;;;;23.78;61.70;98721.00;4484633;31;20175;-67
2023/06/29 10:01:15;;;;;;;3.58;1.70;;;;;;;24.07;60.01;98729.34;4485225;31;20112;-66
2023/06/29 10:03:44;;;;;;;5.32;1.60;;;;;;;24.38;60.19;98716.78;4485748;31;20092;-67
2023/06/29 10:06:15;;;;;;;6.12;2.08;;;;;;;24.02;60.21;98723.84;4485272;31;20541;-67
2023/06/29 10:08:42;;;;;;;1.58;1.48;;;;;;;24.00;59.71;98725.94;4473463;31;20180;-67
2023/06/29 10:11:10;;;;;;;2.40;1.60;;;;;;;24.25;57.60;98717.78;4484494;31;20116;-67
2023/06/29 10:13:48;;;;;;;2.30;1.58;;;;;;;24.45;56.93;98723.66;4480754;31;20150;-66
2023/06/29 10:16:21;;;;;;;2.97;1.87;;;;;;;24.72;55.53;98719.78;4477712;31;20200;-67
2023/06/29 10:18:50;;;;;;;4.53;1.73;;;;;;;25.01;55.84;98723.41;4482824;31;20438;-67
2023/06/29 10:21:17;;;;;;;2.65;2.05;;;;;;;24.98;55.26;98722.03;4484202;31;20160;-67
2023/06/29 10:23:45;;;;;;;1.83;1.58;;;;;;;25.09;53.40;98711.56;4482174;32;20108;-67
2023/06/29 10:26:13;;;;;;;3.90;1.52;;;;;;;25.14;55.04;98704.44;4481368;31;20150;-67
2023/06/29 10:28:40;;;;;;;5.07;2.25;;;;;;;25.40;53.95;98706.91;4478890;31;20570;-67
2023/06/29 10:31:07;;;;;;;3.60;1.75;;;;;;;25.19;55.76;98714.44;4482181;31;20127;-66
2023/06/29 10:33:45;;;;;;;2.83;1.67;;;;;;;25.09;54.79;98707.00;4484273;31;20107;-66
2023/06/29 10:36:17;;;;;;;1.70;1.40;;;;;;;25.70;54.19;98698.66;4483655;31;20107;-65
2023/06/29 10:38:44;;;;;;;1.83;1.50;;;;;;;25.29;52.78;98711.19;4477707;31;20089;-66
2023/06/29 10:41:29;;;;;;;5.28;1.85;;;;;;;25.25;52.37;98704.66;4483621;31;20168;-67
2023/06/29 10:43:58;;;;;;;2.28;1.80;;;;;;;25.81;53.65;98702.38;4484378;32;20092;-67
2023/06/29 10:46:45;;;;;;;2.03;1.67;;;;;;;25.89;51.18;98709.22;4484417;31;20138;-68
2023/06/29 10:49:22;;;;;;;4.93;1.98;;;;;;;26.22;51.80;98705.84;4483846;31;20100;-67
2023/06/29 10:51:53;;;;;;;4.12;2.00;;;;;;;26.05;49.42;98707.69;4484932;32;20085;-66
2023/06/29 10:54:24;;;;;;;2.67;2.10;;;;;;;25.70;49.97;98705.91;4484267;31;20212;-66
2023/06/29 10:56:56;;;;;;;3.03;1.95;;;;;;;25.72;50.81;98703.78;4484247;32;20483;-65
2023/06/29 10:59:25;;;;;;;5.50;1.80;;;;;;;25.49;52.32;98716.22;4479165;31;20111;-66
2023/06/29 11:01:54;;;;;;;3.03;1.83;;;;;;;25.41;53.32;98705.84;4480166;31;20148;-64
2023/06/29 11:04:23;;;;;;;3.83;1.98;;;;;;;25.92;54.17;98704.22;4477921;31;20096;-65
2023/06/29 11:06:51;;;;;;;2.80;1.87;;;;;;;25.98;53.04;98708.66;4483453;31;20487;-64
2023/06/29 11:09:20;;;;;;;5.93;1.80;;;;;;;26.17;51.65;98708.44;4471209;32;20097;-63
2023/06/29 11:11:48;;;;;;;5.75;1.73;;;;;;;25.93;51.52;98707.69;4485914;31;20152;-65
2023/06/29 11:14:17;;;;;;;2.85;1.80;;;;;;;25.90;51.79;98698.25;4483786;31;20175;-65
2023/06/29 11:16:47;;;;;;;2.92;2.05;;;;;;;25.73;52.75;98711.59;4476471;31;20092;-64
2023/06/29 11:19:15;;;;;;;5.32;2.05;;;;;;;26.13;53.53;98697.37;4482437;31;20407;-64
2023/06/29 11:21:42;;;;;;;3.15;1.60;;;;;;;25.69;53.19;98694.34;4481933;31;20105;-65
2023/06/29 11:24:10;;;;;;;2.30;1.80;;;;;;;26.00;52.82;98697.69;4472759;31;20461;-65
2023/06/29 11:26:41;;;;;;;4.53;1.70;;;;;;;26.43;50.02;98703.53;4478649;31;20104;-65
2023/06/29 11:29:09;;;;;;;2.50;2.00;;;;;;;26.78;48.04;98697.94;4477001;31;20089;-65
2023/06/29 11:31:36;;;;;;;2.65;1.95;;;;;;;26.31;48.66;98696.34;4479569;32;20878;-65
2023/06/29 11:34:03;;;;;;;5.35;1.90;;;;;;;26.28;49.58;98691.47;4482235;31;20556;-66
2023/06/29 11:36:33;;;;;;;2.80;2.05;;;;;;;26.68;48.81;98701.31;4482582;31;20166;-65